Terminal Aerodrome Forecast
Issued by NWS Blacksburg, VA

Home | Current Version | Previous Version | Text Only | Print | Product List | Glossary On
Versions: 1 2 3 4 5 6 7 8 9 10 11 12 13 14 15 16 17 18
000
FTUS41 KRNK 260306 AAB
TAFLYH
TAF AMD
KLYH 260306Z 2603/2624 01007KT P6SM SCT020
      TEMPO 2603/2605 2SM BR SCT003
     FM260500 33004KT 2SM BR BKN025
     FM260700 03003KT 2SM BR OVC007
     FM261300 VRB03KT P6SM SCT030=

USA.gov is the U.S. government's official web portal to all federal, state and local government web resources and services.